createdAt,value
2022-12-10T00:17:13.163Z,99
2022-12-10T00:27:13.285Z,99
2022-12-10T00:37:13.489Z,99
2022-12-10T00:47:14.499Z,99
2022-12-10T00:57:14.867Z,99
2022-12-10T01:07:15.271Z,99
2022-12-10T01:17:15.638Z,99
2022-12-10T01:27:16.145Z,99
2022-12-10T01:37:17.071Z,99
2022-12-10T01:47:17.692Z,98
2022-12-10T01:57:18.378Z,98
2022-12-10T02:07:18.900Z,98
2022-12-10T02:17:19.138Z,98
2022-12-10T02:27:19.633Z,98
2022-12-10T02:37:20.594Z,97
2022-12-10T02:47:21.271Z,96
2022-12-10T02:57:21.810Z,96
2022-12-10T03:07:22.799Z,95
2022-12-10T03:17:23.424Z,90
2022-12-10T03:27:23.805Z,89
2022-12-10T03:47:25.038Z,89
2022-12-10T03:57:25.945Z,90
2022-12-10T04:07:26.979Z,90
2022-12-10T04:17:27.500Z,90
2022-12-10T04:27:28.259Z,91
2022-12-10T04:47:29.155Z,85
2022-12-10T04:57:29.838Z,84
2022-12-10T05:07:30.028Z,86
2022-12-10T05:17:30.264Z,87
2022-12-10T05:27:30.914Z,86
2022-12-10T05:47:32.790Z,88
2022-12-10T05:57:33.224Z,90
2022-12-10T06:57:37.629Z,95
2022-12-10T07:37:41.016Z,95
2022-12-10T07:47:41.895Z,95
2022-12-10T07:57:42.589Z,94
2022-12-10T08:07:43.218Z,93
2022-12-10T08:17:43.305Z,93
2022-12-10T08:27:43.570Z,92
2022-12-10T08:37:43.834Z,92
2022-12-10T08:47:44.815Z,92
2022-12-10T08:50:23.274Z,92
2022-12-10T08:57:53.688Z,94
2022-12-10T09:07:53.864Z,97
2022-12-10T09:17:54.656Z,99
2022-12-10T09:27:55.582Z,99
2022-12-10T09:37:56.042Z,99
2022-12-10T09:57:56.974Z,99
2022-12-10T10:07:57.858Z,99
2022-12-10T10:17:58.286Z,99
2022-12-10T10:27:58.824Z,98
2022-12-10T10:37:59.402Z,98
2022-12-10T10:47:59.831Z,98
2022-12-10T10:58:00.188Z,96
2022-12-10T11:08:00.362Z,96
2022-12-10T11:18:00.485Z,96
2022-12-10T11:28:01.501Z,96
2022-12-10T11:38:02.181Z,96
2022-12-10T11:48:02.631Z,96
2022-12-10T11:58:03.244Z,96
2022-12-10T12:08:03.869Z,96
2022-12-10T12:18:04.095Z,96
2022-12-10T12:28:05.110Z,95
2022-12-10T12:38:05.976Z,95
2022-12-10T12:48:06.474Z,95
2022-12-10T12:58:06.701Z,95
2022-12-10T13:08:07.741Z,95
2022-12-10T13:18:08.416Z,95
2022-12-10T13:28:08.678Z,95
2022-12-10T13:48:10.164Z,95
2022-12-10T13:58:10.504Z,94
2022-12-10T14:08:10.903Z,94
2022-12-10T14:18:11.623Z,94
2022-12-10T14:28:12.320Z,94
2022-12-10T14:48:13.098Z,94
2022-12-10T14:58:13.938Z,94
2022-12-10T15:08:14.586Z,94
2022-12-10T15:18:14.903Z,94
2022-12-10T15:28:15.698Z,94
2022-12-10T15:38:16.075Z,95
2022-12-10T15:48:16.465Z,94
2022-12-10T15:58:16.631Z,94
2022-12-10T16:08:17.734Z,95
2022-12-10T16:18:18.440Z,95
2022-12-10T16:28:18.686Z,95
2022-12-10T16:38:19.109Z,95
2022-12-10T16:48:19.628Z,95
2022-12-10T16:58:20.506Z,95
2022-12-10T17:08:21.584Z,95
2022-12-10T17:18:22.062Z,95
2022-12-10T17:28:22.820Z,95
2022-12-10T17:38:23.079Z,95
2022-12-10T17:48:23.499Z,95
2022-12-10T17:58:24.286Z,95
2022-12-10T18:08:25.038Z,96
2022-12-10T18:18:25.592Z,96
2022-12-10T18:28:25.684Z,95
2022-12-10T18:38:26.567Z,95
2022-12-10T18:48:27.178Z,95
2022-12-10T18:58:27.698Z,95
2022-12-10T19:08:28.214Z,95
2022-12-10T19:18:28.687Z,96
2022-12-10T19:28:29.265Z,96
2022-12-10T19:38:30.298Z,96
2022-12-10T19:48:34.688Z,96
2022-12-10T19:58:31.122Z,96
2022-12-10T20:08:32.093Z,96
2022-12-10T20:18:32.523Z,96
2022-12-10T20:28:33.009Z,96
2022-12-10T20:38:33.915Z,96
2022-12-10T20:48:34.944Z,96
2022-12-10T20:58:35.815Z,95
2022-12-10T21:08:36.685Z,95
2022-12-10T21:18:37.623Z,96
2022-12-10T21:28:38.527Z,96
2022-12-10T21:38:39.509Z,96
2022-12-10T21:48:39.984Z,97
2022-12-10T21:58:40.752Z,97
2022-12-10T22:08:41.150Z,97
2022-12-10T22:18:41.424Z,97
2022-12-10T22:28:42.172Z,97
2022-12-10T22:38:42.887Z,97
2022-12-10T22:48:43.747Z,98
2022-12-10T22:58:44.331Z,98
2022-12-10T23:08:44.864Z,98
2022-12-10T23:18:45.123Z,98
2022-12-10T23:28:46.123Z,98
2022-12-10T23:38:46.349Z,98
2022-12-10T23:48:46.748Z,99
2022-12-10T23:58:47.606Z,99
